Riverdale, Illinois
Current Conditions -  °F | °C
As of 5:15 PM on Sunday 21 Dec 2014 (Local Time) from KIGQ Reporting Station
Overcast Overcast  
Wind Chill: 35°   Ceiling: 2200
Heat Index: 35°   Visibility: 10mi
Dew Point: 30°   Wind: 3mph
Humidity: 81%   Direction: 140°SE
Pressure: 30.11"   Gusts: NA
Location:  41.63°N, 87.63°W
Report Text: KIGQ 212315Z AUTO 14003KT 10SM OVC022 02/M01 A3011 RMK AO2 T00181012
Loading
Personal Weather Stations






























Interactive Weather Map New forecast layout! Learn more

10-Day Weather Forecast

Advertisements
Track Severe Weather on mobile